Airfield :
LOGIN :

Register | Disclaimer

   EN    FR    IT 

 










Legend :    VFR   Marginal VFR   IFR   Intensive IFR   Very Intensive IFR
Visi :
Ceiling :
>= 8 km
>= 3000ft
5 to 8 km
1000 to 3000 ft
1500m to 5 km
500 to 1000 ft
800 to 1500m
200 to 500 ft
< 800m
< 200 ft
Symbols :   Thunderstorms  Fog  Heavy snow  Heavy precipitations  Wind > 20 kt
SIGMETs :     Misc.  Thunderstorms  Icing  Turbulence  Mountain Waves  Volcanic Ashes






- Airport Elevation : 257 ft
- IATA code : MAN


EGCC - Manchester

CURRENT METAR :
  • 190520Z AUTO 35001KT 0100 R23R/0250 FZFG VV/// M02/M02 Q1041 NOSIG

EXPIRED METARs :
  • 190450Z AUTO VRB01KT 0050 R23R/0350 FZFG VV/// M01/M02 Q1041 NOSIG
  • 190420Z AUTO VRB02KT 0100 R23R/0325 FZFG VV/// M01/M01 Q1040 NOSIG
  • 190350Z AUTO VRB02KT 0100 R23R/0250 FZFG VV/// M01/M01 Q1040 NOSIG
  • 190320Z AUTO VRB02KT 0150 R23R/0400 FZFG VV/// M01/M01 Q1040 NOSIG
  • 190250Z AUTO 10003KT 0050 R23R/0225 FZFG VV/// M01/M01 Q1040 NOSIG

TAF TAF EGCC
Valid from the 19 at 06:00 until the 20 at 12:00 UTC


190500Z 1906/2012 VRB04KT 0300 FG FZFG VV///
TEMPO 1906/1912 0800
BECMG 1912/1915 3000 BR FEW003
PROB30 1915/1918 BKN003
BECMG 1918/1921 0800 FG BKN001
PROB30 1918/1924 0300 FZFG
BECMG 2000/2003 6000 NSW FEW003
PROB30 2003/2011 3000 BR BKN003
ATIS : +44 161 499 2324



MET'MAP, your aeronautical weather chart ! - Copyright ORBIFLY December 2007 - Disclaimer

ORBIFLY MET'MAP TEAM :

Programming & Development : Alexandra Zaïnal
Concept & original design : Baudouin d'Aumeries
Assistance for programming : Marc-Olivier Méhu
Technical & hardware support : Manuel Goepfert

Contact : metmap@orbifly.com




SOURCES & CREDITS :

   NOAA